sensor_id;sensor_type;location;lat;lon;timestamp;temperature;humidity
12006;DHT22;6062;47.294;12.182;2023-02-15T00:00:21;5.40;39.00
12006;DHT22;6062;47.294;12.182;2023-02-15T00:02:47;5.50;38.80
12006;DHT22;6062;47.294;12.182;2023-02-15T00:05:13;5.50;39.00
12006;DHT22;6062;47.294;12.182;2023-02-15T00:07:39;5.60;38.80
12006;DHT22;6062;47.294;12.182;2023-02-15T00:10:05;5.60;38.70
12006;DHT22;6062;47.294;12.182;2023-02-15T00:12:31;5.70;38.80
12006;DHT22;6062;47.294;12.182;2023-02-15T00:14:57;5.70;38.40
12006;DHT22;6062;47.294;12.182;2023-02-15T00:17:23;5.80;38.50
12006;DHT22;6062;47.294;12.182;2023-02-15T00:19:49;5.80;38.40
12006;DHT22;6062;47.294;12.182;2023-02-15T00:22:14;5.90;38.40
12006;DHT22;6062;47.294;12.182;2023-02-15T00:24:40;5.90;38.40
12006;DHT22;6062;47.294;12.182;2023-02-15T00:27:06;5.90;38.20
12006;DHT22;6062;47.294;12.182;2023-02-15T00:29:32;5.90;38.20
12006;DHT22;6062;47.294;12.182;2023-02-15T00:31:57;5.80;38.80
12006;DHT22;6062;47.294;12.182;2023-02-15T00:34:25;5.80;39.00
12006;DHT22;6062;47.294;12.182;2023-02-15T00:36:52;5.80;39.30
12006;DHT22;6062;47.294;12.182;2023-02-15T00:39:18;5.80;39.50
12006;DHT22;6062;47.294;12.182;2023-02-15T00:41:45;5.70;39.30
12006;DHT22;6062;47.294;12.182;2023-02-15T00:44:12;5.70;39.40
12006;DHT22;6062;47.294;12.182;2023-02-15T00:46:39;5.70;39.60
12006;DHT22;6062;47.294;12.182;2023-02-15T00:49:05;5.60;39.40
12006;DHT22;6062;47.294;12.182;2023-02-15T00:51:31;5.60;39.30
12006;DHT22;6062;47.294;12.182;2023-02-15T00:53:57;5.60;39.20
12006;DHT22;6062;47.294;12.182;2023-02-15T00:56:23;5.60;39.40
12006;DHT22;6062;47.294;12.182;2023-02-15T00:58:49;5.60;39.30
12006;DHT22;6062;47.294;12.182;2023-02-15T01:01:17;5.60;39.20
12006;DHT22;6062;47.294;12.182;2023-02-15T01:03:44;5.60;39.40
12006;DHT22;6062;47.294;12.182;2023-02-15T01:06:13;5.60;39.50
12006;DHT22;6062;47.294;12.182;2023-02-15T01:08:40;5.60;39.50
12006;DHT22;6062;47.294;12.182;2023-02-15T01:11:08;5.60;39.40
12006;DHT22;6062;47.294;12.182;2023-02-15T01:13:36;5.60;39.20
12006;DHT22;6062;47.294;12.182;2023-02-15T01:16:03;5.60;39.20
12006;DHT22;6062;47.294;12.182;2023-02-15T01:18:29;5.60;39.20
12006;DHT22;6062;47.294;12.182;2023-02-15T01:20:55;5.60;39.80
12006;DHT22;6062;47.294;12.182;2023-02-15T01:23:22;5.50;39.10
12006;DHT22;6062;47.294;12.182;2023-02-15T01:25:48;5.50;39.10
12006;DHT22;6062;47.294;12.182;2023-02-15T01:28:14;5.50;39.00
12006;DHT22;6062;47.294;12.182;2023-02-15T01:30:40;5.50;39.60
12006;DHT22;6062;47.294;12.182;2023-02-15T01:33:05;5.50;39.20
12006;DHT22;6062;47.294;12.182;2023-02-15T01:35:31;5.50;39.00
12006;DHT22;6062;47.294;12.182;2023-02-15T01:37:58;5.50;39.00
12006;DHT22;6062;47.294;12.182;2023-02-15T01:40:24;5.50;38.90
12006;DHT22;6062;47.294;12.182;2023-02-15T01:42:52;5.40;38.90
12006;DHT22;6062;47.294;12.182;2023-02-15T01:48:00;5.40;38.80
12006;DHT22;6062;47.294;12.182;2023-02-15T01:50:35;5.40;38.90
12006;DHT22;6062;47.294;12.182;2023-02-15T01:53:22;5.30;39.10
12006;DHT22;6062;47.294;12.182;2023-02-15T01:58:27;5.30;39.30
12006;DHT22;6062;47.294;12.182;2023-02-15T02:00:57;5.30;39.20
12006;DHT22;6062;47.294;12.182;2023-02-15T02:03:58;5.30;39.20
12006;DHT22;6062;47.294;12.182;2023-02-15T02:06:49;5.30;39.20
12006;DHT22;6062;47.294;12.182;2023-02-15T02:09:16;5.30;39.00
12006;DHT22;6062;47.294;12.182;2023-02-15T02:11:45;5.30;38.90
12006;DHT22;6062;47.294;12.182;2023-02-15T02:14:12;5.30;38.80
12006;DHT22;6062;47.294;12.182;2023-02-15T02:25:40;5.50;38.80
12006;DHT22;6062;47.294;12.182;2023-02-15T02:35:12;5.60;38.80
12006;DHT22;6062;47.294;12.182;2023-02-15T02:38:07;5.60;38.90
12006;DHT22;6062;47.294;12.182;2023-02-15T02:40:58;5.60;38.70
12006;DHT22;6062;47.294;12.182;2023-02-15T02:43:42;5.60;38.60
12006;DHT22;6062;47.294;12.182;2023-02-15T02:46:26;5.60;38.20
12006;DHT22;6062;47.294;12.182;2023-02-15T02:48:56;5.60;38.00
12006;DHT22;6062;47.294;12.182;2023-02-15T02:51:22;5.60;38.00
12006;DHT22;6062;47.294;12.182;2023-02-15T02:53:53;5.70;38.20
12006;DHT22;6062;47.294;12.182;2023-02-15T02:56:30;5.70;38.00
12006;DHT22;6062;47.294;12.182;2023-02-15T02:59:02;5.70;38.00
12006;DHT22;6062;47.294;12.182;2023-02-15T03:01:42;5.80;37.90
12006;DHT22;6062;47.294;12.182;2023-02-15T03:04:17;5.80;37.70
12006;DHT22;6062;47.294;12.182;2023-02-15T03:06:55;5.90;37.70
12006;DHT22;6062;47.294;12.182;2023-02-15T03:09:34;5.90;37.70
12006;DHT22;6062;47.294;12.182;2023-02-15T03:12:25;5.90;38.00
12006;DHT22;6062;47.294;12.182;2023-02-15T03:15:02;5.90;38.30
12006;DHT22;6062;47.294;12.182;2023-02-15T03:17:33;5.80;37.80
12006;DHT22;6062;47.294;12.182;2023-02-15T03:20:06;5.80;37.50
12006;DHT22;6062;47.294;12.182;2023-02-15T03:22:40;5.70;37.50
12006;DHT22;6062;47.294;12.182;2023-02-15T03:25:21;5.80;37.60
12006;DHT22;6062;47.294;12.182;2023-02-15T03:27:55;5.70;37.50
12006;DHT22;6062;47.294;12.182;2023-02-15T03:30:28;5.70;37.50
12006;DHT22;6062;47.294;12.182;2023-02-15T03:32:58;5.70;37.30
12006;DHT22;6062;47.294;12.182;2023-02-15T03:35:29;5.70;37.40
12006;DHT22;6062;47.294;12.182;2023-02-15T03:38:03;5.70;37.50
12006;DHT22;6062;47.294;12.182;2023-02-15T03:40:38;5.70;37.80
12006;DHT22;6062;47.294;12.182;2023-02-15T03:47:25;5.70;37.80
12006;DHT22;6062;47.294;12.182;2023-02-15T03:49:51;5.70;37.80
12006;DHT22;6062;47.294;12.182;2023-02-15T03:52:21;5.70;37.60
12006;DHT22;6062;47.294;12.182;2023-02-15T03:54:51;5.70;37.80
12006;DHT22;6062;47.294;12.182;2023-02-15T03:57:26;5.70;37.80
12006;DHT22;6062;47.294;12.182;2023-02-15T04:00:19;5.70;37.60
12006;DHT22;6062;47.294;12.182;2023-02-15T04:03:38;5.70;37.80
12006;DHT22;6062;47.294;12.182;2023-02-15T04:06:05;5.70;37.60
12006;DHT22;6062;47.294;12.182;2023-02-15T04:08:31;5.60;37.80
12006;DHT22;6062;47.294;12.182;2023-02-15T04:11:15;5.70;38.00
12006;DHT22;6062;47.294;12.182;2023-02-15T04:13:41;5.70;38.10
12006;DHT22;6062;47.294;12.182;2023-02-15T04:16:07;5.70;38.10
12006;DHT22;6062;47.294;12.182;2023-02-15T04:18:41;5.60;38.10
12006;DHT22;6062;47.294;12.182;2023-02-15T04:21:29;5.60;38.20
12006;DHT22;6062;47.294;12.182;2023-02-15T04:24:14;5.60;38.20
12006;DHT22;6062;47.294;12.182;2023-02-15T04:26:59;5.50;38.40
12006;DHT22;6062;47.294;12.182;2023-02-15T04:29:26;5.50;38.30
12006;DHT22;6062;47.294;12.182;2023-02-15T04:31:55;5.50;38.20
12006;DHT22;6062;47.294;12.182;2023-02-15T04:34:22;5.50;38.10
12006;DHT22;6062;47.294;12.182;2023-02-15T04:36:48;5.50;38.20
12006;DHT22;6062;47.294;12.182;2023-02-15T04:39:16;5.40;37.90
12006;DHT22;6062;47.294;12.182;2023-02-15T04:41:44;5.40;37.80
12006;DHT22;6062;47.294;12.182;2023-02-15T04:44:10;5.40;37.70
12006;DHT22;6062;47.294;12.182;2023-02-15T04:46:36;5.40;38.10
12006;DHT22;6062;47.294;12.182;2023-02-15T04:49:02;5.40;38.00
12006;DHT22;6062;47.294;12.182;2023-02-15T04:51:28;5.40;38.20
12006;DHT22;6062;47.294;12.182;2023-02-15T04:53:54;5.30;38.20
12006;DHT22;6062;47.294;12.182;2023-02-15T04:56:20;5.30;38.00
12006;DHT22;6062;47.294;12.182;2023-02-15T04:58:46;5.30;38.20
12006;DHT22;6062;47.294;12.182;2023-02-15T05:01:13;5.30;38.10
12006;DHT22;6062;47.294;12.182;2023-02-15T05:03:38;5.30;38.00
12006;DHT22;6062;47.294;12.182;2023-02-15T05:06:05;5.30;37.90
12006;DHT22;6062;47.294;12.182;2023-02-15T05:08:30;5.30;37.90
12006;DHT22;6062;47.294;12.182;2023-02-15T05:10:57;5.30;37.90
12006;DHT22;6062;47.294;12.182;2023-02-15T05:13:23;5.40;37.50
12006;DHT22;6062;47.294;12.182;2023-02-15T05:15:51;5.40;37.30
12006;DHT22;6062;47.294;12.182;2023-02-15T05:18:18;5.50;37.10
12006;DHT22;6062;47.294;12.182;2023-02-15T05:20:46;5.50;36.80
12006;DHT22;6062;47.294;12.182;2023-02-15T05:23:12;5.60;36.60
12006;DHT22;6062;47.294;12.182;2023-02-15T05:25:38;5.70;36.50
12006;DHT22;6062;47.294;12.182;2023-02-15T05:28:24;5.70;36.30
12006;DHT22;6062;47.294;12.182;2023-02-15T05:33:36;5.80;36.10
12006;DHT22;6062;47.294;12.182;2023-02-15T05:36:03;5.90;36.20
12006;DHT22;6062;47.294;12.182;2023-02-15T05:38:29;5.90;36.20
12006;DHT22;6062;47.294;12.182;2023-02-15T05:40:55;5.90;36.10
12006;DHT22;6062;47.294;12.182;2023-02-15T05:43:22;6.00;36.10
12006;DHT22;6062;47.294;12.182;2023-02-15T05:45:50;5.90;35.90
12006;DHT22;6062;47.294;12.182;2023-02-15T05:48:17;5.90;35.80
12006;DHT22;6062;47.294;12.182;2023-02-15T05:50:44;5.90;35.70
12006;DHT22;6062;47.294;12.182;2023-02-15T05:53:11;5.80;35.70
12006;DHT22;6062;47.294;12.182;2023-02-15T05:55:38;5.80;35.80
12006;DHT22;6062;47.294;12.182;2023-02-15T05:58:05;5.70;35.70
12006;DHT22;6062;47.294;12.182;2023-02-15T06:00:31;5.70;35.80
12006;DHT22;6062;47.294;12.182;2023-02-15T06:02:57;5.60;35.70
12006;DHT22;6062;47.294;12.182;2023-02-15T06:05:23;5.60;35.70
12006;DHT22;6062;47.294;12.182;2023-02-15T06:07:49;5.60;35.80
12006;DHT22;6062;47.294;12.182;2023-02-15T06:10:15;5.50;35.70
12006;DHT22;6062;47.294;12.182;2023-02-15T06:12:40;5.50;35.70
12006;DHT22;6062;47.294;12.182;2023-02-15T06:15:06;5.50;36.70
12006;DHT22;6062;47.294;12.182;2023-02-15T06:17:32;5.40;36.40
12006;DHT22;6062;47.294;12.182;2023-02-15T06:19:58;5.40;36.60
12006;DHT22;6062;47.294;12.182;2023-02-15T06:22:23;5.30;36.80
12006;DHT22;6062;47.294;12.182;2023-02-15T06:24:49;5.30;37.10
12006;DHT22;6062;47.294;12.182;2023-02-15T06:27:15;5.30;37.00
12006;DHT22;6062;47.294;12.182;2023-02-15T06:29:41;5.20;37.00
12006;DHT22;6062;47.294;12.182;2023-02-15T06:32:06;5.20;37.20
12006;DHT22;6062;47.294;12.182;2023-02-15T06:34:32;5.20;37.70
12006;DHT22;6062;47.294;12.182;2023-02-15T06:36:58;5.20;38.70
12006;DHT22;6062;47.294;12.182;2023-02-15T06:39:24;5.40;39.40
12006;DHT22;6062;47.294;12.182;2023-02-15T06:41:49;5.60;40.00
12006;DHT22;6062;47.294;12.182;2023-02-15T06:44:15;5.90;40.30
12006;DHT22;6062;47.294;12.182;2023-02-15T06:46:41;6.40;40.90
12006;DHT22;6062;47.294;12.182;2023-02-15T06:49:06;6.80;40.20
12006;DHT22;6062;47.294;12.182;2023-02-15T06:51:32;7.30;40.40
12006;DHT22;6062;47.294;12.182;2023-02-15T06:53:59;7.90;39.90
12006;DHT22;6062;47.294;12.182;2023-02-15T06:56:25;8.50;39.10
12006;DHT22;6062;47.294;12.182;2023-02-15T06:58:51;9.10;38.50
12006;DHT22;6062;47.294;12.182;2023-02-15T07:01:18;9.80;37.90
12006;DHT22;6062;47.294;12.182;2023-02-15T07:03:44;10.50;36.80
12006;DHT22;6062;47.294;12.182;2023-02-15T07:06:10;11.10;36.30
12006;DHT22;6062;47.294;12.182;2023-02-15T07:08:36;11.80;35.40
12006;DHT22;6062;47.294;12.182;2023-02-15T07:11:04;12.40;34.60
12006;DHT22;6062;47.294;12.182;2023-02-15T07:13:48;13.10;34.00
12006;DHT22;6062;47.294;12.182;2023-02-15T07:16:15;13.80;33.00
12006;DHT22;6062;47.294;12.182;2023-02-15T07:18:40;14.40;32.20
12006;DHT22;6062;47.294;12.182;2023-02-15T07:21:06;15.00;31.30
12006;DHT22;6062;47.294;12.182;2023-02-15T07:23:37;15.60;30.70
12006;DHT22;6062;47.294;12.182;2023-02-15T07:26:04;16.20;30.00
12006;DHT22;6062;47.294;12.182;2023-02-15T07:28:31;16.70;28.90
12006;DHT22;6062;47.294;12.182;2023-02-15T07:30:57;17.30;29.00
12006;DHT22;6062;47.294;12.182;2023-02-15T07:33:24;17.80;28.50
12006;DHT22;6062;47.294;12.182;2023-02-15T07:35:51;18.40;27.70
12006;DHT22;6062;47.294;12.182;2023-02-15T07:38:23;18.90;27.20
12006;DHT22;6062;47.294;12.182;2023-02-15T07:40:58;19.40;25.80
12006;DHT22;6062;47.294;12.182;2023-02-15T07:43:29;19.90;25.20
12006;DHT22;6062;47.294;12.182;2023-02-15T07:46:07;20.40;24.90
12006;DHT22;6062;47.294;12.182;2023-02-15T07:48:36;20.90;24.20
12006;DHT22;6062;47.294;12.182;2023-02-15T07:51:04;21.30;24.20
12006;DHT22;6062;47.294;12.182;2023-02-15T07:53:31;21.70;23.60
12006;DHT22;6062;47.294;12.182;2023-02-15T07:56:06;22.10;23.10
12006;DHT22;6062;47.294;12.182;2023-02-15T07:58:34;22.50;22.60
12006;DHT22;6062;47.294;12.182;2023-02-15T08:01:26;22.80;22.60
12006;DHT22;6062;47.294;12.182;2023-02-15T08:03:55;23.30;22.40
12006;DHT22;6062;47.294;12.182;2023-02-15T08:06:27;23.60;22.40
12006;DHT22;6062;47.294;12.182;2023-02-15T08:08:55;23.80;21.70
12006;DHT22;6062;47.294;12.182;2023-02-15T08:11:23;24.10;21.20
12006;DHT22;6062;47.294;12.182;2023-02-15T08:14:15;24.40;20.70
12006;DHT22;6062;47.294;12.182;2023-02-15T08:16:47;24.70;19.80
12006;DHT22;6062;47.294;12.182;2023-02-15T08:19:24;24.90;19.50
12006;DHT22;6062;47.294;12.182;2023-02-15T08:21:52;25.20;19.20
12006;DHT22;6062;47.294;12.182;2023-02-15T08:24:21;25.50;19.50
12006;DHT22;6062;47.294;12.182;2023-02-15T08:26:48;25.70;19.20
12006;DHT22;6062;47.294;12.182;2023-02-15T08:29:17;26.00;19.20
12006;DHT22;6062;47.294;12.182;2023-02-15T08:31:45;26.20;19.00
12006;DHT22;6062;47.294;12.182;2023-02-15T08:34:14;26.40;18.70
12006;DHT22;6062;47.294;12.182;2023-02-15T08:36:42;26.60;18.30
12006;DHT22;6062;47.294;12.182;2023-02-15T08:39:10;26.80;18.40
12006;DHT22;6062;47.294;12.182;2023-02-15T08:41:38;26.90;18.50
12006;DHT22;6062;47.294;12.182;2023-02-15T08:44:06;27.00;18.50
12006;DHT22;6062;47.294;12.182;2023-02-15T08:46:35;27.20;18.50
12006;DHT22;6062;47.294;12.182;2023-02-15T08:49:03;27.40;18.90
12006;DHT22;6062;47.294;12.182;2023-02-15T08:51:32;27.60;18.70
12006;DHT22;6062;47.294;12.182;2023-02-15T08:54:04;27.80;18.70
12006;DHT22;6062;47.294;12.182;2023-02-15T08:56:33;28.00;18.40
12006;DHT22;6062;47.294;12.182;2023-02-15T08:59:01;28.20;18.20
12006;DHT22;6062;47.294;12.182;2023-02-15T09:01:30;28.40;18.30
12006;DHT22;6062;47.294;12.182;2023-02-15T09:04:07;28.60;17.80
12006;DHT22;6062;47.294;12.182;2023-02-15T09:06:38;28.80;17.80
12006;DHT22;6062;47.294;12.182;2023-02-15T09:09:06;28.90;17.80
12006;DHT22;6062;47.294;12.182;2023-02-15T09:11:38;29.00;17.30
12006;DHT22;6062;47.294;12.182;2023-02-15T09:14:10;29.10;17.20
12006;DHT22;6062;47.294;12.182;2023-02-15T09:16:43;29.20;17.30
12006;DHT22;6062;47.294;12.182;2023-02-15T09:19:11;29.30;17.50
12006;DHT22;6062;47.294;12.182;2023-02-15T09:21:39;29.50;17.50
12006;DHT22;6062;47.294;12.182;2023-02-15T09:24:09;29.60;17.30
12006;DHT22;6062;47.294;12.182;2023-02-15T09:26:40;29.70;17.30
12006;DHT22;6062;47.294;12.182;2023-02-15T09:29:09;29.80;17.00
12006;DHT22;6062;47.294;12.182;2023-02-15T09:31:41;30.00;16.80
12006;DHT22;6062;47.294;12.182;2023-02-15T09:34:16;30.10;16.70
12006;DHT22;6062;47.294;12.182;2023-02-15T09:36:43;30.40;17.20
12006;DHT22;6062;47.294;12.182;2023-02-15T09:39:30;30.50;17.00
12006;DHT22;6062;47.294;12.182;2023-02-15T09:56:31;31.60;16.30
12006;DHT22;6062;47.294;12.182;2023-02-15T09:59:22;31.80;15.80
12006;DHT22;6062;47.294;12.182;2023-02-15T10:05:43;32.10;16.10
12006;DHT22;6062;47.294;12.182;2023-02-15T10:20:56;32.50;15.60
12006;DHT22;6062;47.294;12.182;2023-02-15T10:24:17;32.60;15.60
12006;DHT22;6062;47.294;12.182;2023-02-15T10:27:07;32.60;15.40
12006;DHT22;6062;47.294;12.182;2023-02-15T10:29:42;32.70;15.40
12006;DHT22;6062;47.294;12.182;2023-02-15T10:35:13;32.80;15.60
12006;DHT22;6062;47.294;12.182;2023-02-15T10:38:09;32.90;15.40
12006;DHT22;6062;47.294;12.182;2023-02-15T10:43:59;32.90;14.80
12006;DHT22;6062;47.294;12.182;2023-02-15T10:46:52;33.00;14.80
12006;DHT22;6062;47.294;12.182;2023-02-15T10:52:39;33.00;15.40
12006;DHT22;6062;47.294;12.182;2023-02-15T11:01:55;32.80;15.50
12006;DHT22;6062;47.294;12.182;2023-02-15T11:04:45;32.80;15.50
12006;DHT22;6062;47.294;12.182;2023-02-15T11:07:27;32.80;15.50
12006;DHT22;6062;47.294;12.182;2023-02-15T11:12:49;32.50;15.40
12006;DHT22;6062;47.294;12.182;2023-02-15T11:15:24;32.50;15.50
12006;DHT22;6062;47.294;12.182;2023-02-15T11:18:00;32.40;15.50
12006;DHT22;6062;47.294;12.182;2023-02-15T11:20:46;32.20;15.40
12006;DHT22;6062;47.294;12.182;2023-02-15T11:23:20;32.20;15.50
12006;DHT22;6062;47.294;12.182;2023-02-15T11:25:56;32.10;15.90
12006;DHT22;6062;47.294;12.182;2023-02-15T11:28:40;32.00;15.70
12006;DHT22;6062;47.294;12.182;2023-02-15T11:31:16;31.90;15.60
12006;DHT22;6062;47.294;12.182;2023-02-15T11:33:51;31.80;15.50
12006;DHT22;6062;47.294;12.182;2023-02-15T11:36:35;31.80;15.50
12006;DHT22;6062;47.294;12.182;2023-02-15T11:39:10;31.70;15.40
12006;DHT22;6062;47.294;12.182;2023-02-15T11:41:53;31.60;15.60
12006;DHT22;6062;47.294;12.182;2023-02-15T11:44:26;31.50;15.70
12006;DHT22;6062;47.294;12.182;2023-02-15T11:46:58;31.30;15.60
12006;DHT22;6062;47.294;12.182;2023-02-15T11:49:31;31.20;15.70
12006;DHT22;6062;47.294;12.182;2023-02-15T11:52:02;31.00;15.80
12006;DHT22;6062;47.294;12.182;2023-02-15T11:54:33;30.90;16.10
12006;DHT22;6062;47.294;12.182;2023-02-15T11:57:27;30.80;16.00
12006;DHT22;6062;47.294;12.182;2023-02-15T12:00:04;30.70;15.90
12006;DHT22;6062;47.294;12.182;2023-02-15T12:02:37;30.50;15.80
12006;DHT22;6062;47.294;12.182;2023-02-15T12:05:13;30.40;15.80
12006;DHT22;6062;47.294;12.182;2023-02-15T12:07:46;30.30;15.70
12006;DHT22;6062;47.294;12.182;2023-02-15T12:10:27;30.20;15.90
12006;DHT22;6062;47.294;12.182;2023-02-15T12:13:16;30.00;16.10
12006;DHT22;6062;47.294;12.182;2023-02-15T12:16:06;29.90;16.20
12006;DHT22;6062;47.294;12.182;2023-02-15T12:18:39;29.80;16.30
12006;DHT22;6062;47.294;12.182;2023-02-15T12:23:47;29.60;16.30
12006;DHT22;6062;47.294;12.182;2023-02-15T12:26:29;29.50;16.30
12006;DHT22;6062;47.294;12.182;2023-02-15T12:28:59;29.40;16.20
12006;DHT22;6062;47.294;12.182;2023-02-15T12:34:16;29.00;16.60
12006;DHT22;6062;47.294;12.182;2023-02-15T12:36:50;28.80;16.60
12006;DHT22;6062;47.294;12.182;2023-02-15T12:39:32;28.60;16.50
12006;DHT22;6062;47.294;12.182;2023-02-15T12:42:15;28.20;16.80
12006;DHT22;6062;47.294;12.182;2023-02-15T12:45:08;27.80;16.90
12006;DHT22;6062;47.294;12.182;2023-02-15T12:47:46;27.30;17.30
12006;DHT22;6062;47.294;12.182;2023-02-15T12:50:33;26.80;17.20
12006;DHT22;6062;47.294;12.182;2023-02-15T12:53:13;26.20;17.40
12006;DHT22;6062;47.294;12.182;2023-02-15T12:55:58;25.60;17.80
12006;DHT22;6062;47.294;12.182;2023-02-15T13:01:18;24.20;18.40
12006;DHT22;6062;47.294;12.182;2023-02-15T13:04:12;23.50;18.80
12006;DHT22;6062;47.294;12.182;2023-02-15T13:06:47;22.80;19.30
12006;DHT22;6062;47.294;12.182;2023-02-15T13:09:36;22.20;19.80
12006;DHT22;6062;47.294;12.182;2023-02-15T13:14:56;21.00;20.70
12006;DHT22;6062;47.294;12.182;2023-02-15T13:17:31;20.50;21.10
12006;DHT22;6062;47.294;12.182;2023-02-15T13:20:18;20.00;21.60
12006;DHT22;6062;47.294;12.182;2023-02-15T13:22:49;19.40;21.90
12006;DHT22;6062;47.294;12.182;2023-02-15T13:25:25;19.00;22.50
12006;DHT22;6062;47.294;12.182;2023-02-15T13:28:00;18.50;22.90
12006;DHT22;6062;47.294;12.182;2023-02-15T13:30:31;18.10;23.20
12006;DHT22;6062;47.294;12.182;2023-02-15T13:33:06;17.70;23.60
12006;DHT22;6062;47.294;12.182;2023-02-15T13:35:44;17.30;24.00
12006;DHT22;6062;47.294;12.182;2023-02-15T13:41:22;16.60;25.20
12006;DHT22;6062;47.294;12.182;2023-02-15T13:44:15;16.20;25.20
12006;DHT22;6062;47.294;12.182;2023-02-15T13:49:27;15.60;25.90
12006;DHT22;6062;47.294;12.182;2023-02-15T13:52:22;15.40;26.10
12006;DHT22;6062;47.294;12.182;2023-02-15T13:55:13;15.10;26.60
12006;DHT22;6062;47.294;12.182;2023-02-15T13:57:57;14.90;26.60
12006;DHT22;6062;47.294;12.182;2023-02-15T14:04:25;14.40;27.00
12006;DHT22;6062;47.294;12.182;2023-02-15T14:13:54;13.80;27.50
12006;DHT22;6062;47.294;12.182;2023-02-15T14:16:27;13.60;28.10
12006;DHT22;6062;47.294;12.182;2023-02-15T14:19:31;13.40;28.90
12006;DHT22;6062;47.294;12.182;2023-02-15T14:25:45;13.00;28.60
12006;DHT22;6062;47.294;12.182;2023-02-15T14:28:29;12.90;28.80
12006;DHT22;6062;47.294;12.182;2023-02-15T14:31:04;12.70;29.10
12006;DHT22;6062;47.294;12.182;2023-02-15T14:33:36;12.50;29.40
12006;DHT22;6062;47.294;12.182;2023-02-15T14:36:07;12.50;29.40
12006;DHT22;6062;47.294;12.182;2023-02-15T14:41:31;12.20;30.00
12006;DHT22;6062;47.294;12.182;2023-02-15T14:44:34;12.10;30.00
12006;DHT22;6062;47.294;12.182;2023-02-15T14:47:37;12.00;30.00
12006;DHT22;6062;47.294;12.182;2023-02-15T14:56:05;11.60;30.20
12006;DHT22;6062;47.294;12.182;2023-02-15T14:58:32;11.40;30.40
12006;DHT22;6062;47.294;12.182;2023-02-15T15:01:09;11.30;30.30
12006;DHT22;6062;47.294;12.182;2023-02-15T15:03:36;11.10;30.60
12006;DHT22;6062;47.294;12.182;2023-02-15T15:06:34;11.00;30.60
12006;DHT22;6062;47.294;12.182;2023-02-15T15:11:51;10.70;31.30
12006;DHT22;6062;47.294;12.182;2023-02-15T15:17:01;10.40;31.70
12006;DHT22;6062;47.294;12.182;2023-02-15T15:22:22;10.10;31.50
12006;DHT22;6062;47.294;12.182;2023-02-15T15:24:51;10.00;31.60
12006;DHT22;6062;47.294;12.182;2023-02-15T15:27:52;9.90;31.70
12006;DHT22;6062;47.294;12.182;2023-02-15T15:35:36;9.60;31.80
12006;DHT22;6062;47.294;12.182;2023-02-15T15:50:11;9.20;33.00
12006;DHT22;6062;47.294;12.182;2023-02-15T15:52:43;9.10;33.10
12006;DHT22;6062;47.294;12.182;2023-02-15T15:55:18;9.00;33.20
12006;DHT22;6062;47.294;12.182;2023-02-15T15:57:49;8.90;33.50
12006;DHT22;6062;47.294;12.182;2023-02-15T16:02:52;8.70;34.30
12006;DHT22;6062;47.294;12.182;2023-02-15T16:05:19;8.60;34.20
12006;DHT22;6062;47.294;12.182;2023-02-15T16:07:45;8.50;34.40
12006;DHT22;6062;47.294;12.182;2023-02-15T16:10:25;8.40;34.90
12006;DHT22;6062;47.294;12.182;2023-02-15T16:12:52;8.30;35.00
12006;DHT22;6062;47.294;12.182;2023-02-15T16:15:22;8.20;34.70
12006;DHT22;6062;47.294;12.182;2023-02-15T16:17:55;8.10;34.80
12006;DHT22;6062;47.294;12.182;2023-02-15T16:20:29;8.00;35.10
12006;DHT22;6062;47.294;12.182;2023-02-15T16:29:16;7.70;35.90
12006;DHT22;6062;47.294;12.182;2023-02-15T16:31:56;7.60;35.60
12006;DHT22;6062;47.294;12.182;2023-02-15T16:34:23;7.60;35.60
12006;DHT22;6062;47.294;12.182;2023-02-15T16:36:49;7.50;35.80
12006;DHT22;6062;47.294;12.182;2023-02-15T16:39:20;7.40;36.10
12006;DHT22;6062;47.294;12.182;2023-02-15T16:41:48;7.30;36.10
12006;DHT22;6062;47.294;12.182;2023-02-15T16:44:18;7.20;36.00
12006;DHT22;6062;47.294;12.182;2023-02-15T16:46:50;7.20;36.20
12006;DHT22;6062;47.294;12.182;2023-02-15T16:49:25;7.00;36.40
12006;DHT22;6062;47.294;12.182;2023-02-15T16:52:04;7.00;36.30
12006;DHT22;6062;47.294;12.182;2023-02-15T16:54:33;6.90;36.10
12006;DHT22;6062;47.294;12.182;2023-02-15T16:57:01;6.90;35.80
12006;DHT22;6062;47.294;12.182;2023-02-15T16:59:39;6.80;35.50
12006;DHT22;6062;47.294;12.182;2023-02-15T17:02:18;6.70;35.20
12006;DHT22;6062;47.294;12.182;2023-02-15T17:05:13;6.70;35.30
12006;DHT22;6062;47.294;12.182;2023-02-15T17:08:32;6.70;35.90
12006;DHT22;6062;47.294;12.182;2023-02-15T17:11:09;6.70;35.90
12006;DHT22;6062;47.294;12.182;2023-02-15T17:16:50;6.60;35.00
12006;DHT22;6062;47.294;12.182;2023-02-15T17:19:23;6.60;35.00
12006;DHT22;6062;47.294;12.182;2023-02-15T17:22:00;6.60;35.00
12006;DHT22;6062;47.294;12.182;2023-02-15T17:24:40;6.60;35.00
12006;DHT22;6062;47.294;12.182;2023-02-15T17:27:19;6.60;34.70
12006;DHT22;6062;47.294;12.182;2023-02-15T17:29:50;6.60;34.60
12006;DHT22;6062;47.294;12.182;2023-02-15T17:32:26;6.60;34.90
12006;DHT22;6062;47.294;12.182;2023-02-15T17:35:18;6.60;35.00
12006;DHT22;6062;47.294;12.182;2023-02-15T17:37:48;6.50;35.00
12006;DHT22;6062;47.294;12.182;2023-02-15T17:40:34;6.50;35.00
12006;DHT22;6062;47.294;12.182;2023-02-15T17:43:01;6.50;34.80
12006;DHT22;6062;47.294;12.182;2023-02-15T17:45:36;6.40;34.70
12006;DHT22;6062;47.294;12.182;2023-02-15T17:48:17;6.40;34.90
12006;DHT22;6062;47.294;12.182;2023-02-15T17:50:47;6.30;35.20
12006;DHT22;6062;47.294;12.182;2023-02-15T17:53:16;6.30;35.30
12006;DHT22;6062;47.294;12.182;2023-02-15T17:55:43;6.30;35.60
12006;DHT22;6062;47.294;12.182;2023-02-15T17:58:12;6.20;35.70
12006;DHT22;6062;47.294;12.182;2023-02-15T18:00:42;6.20;35.70
12006;DHT22;6062;47.294;12.182;2023-02-15T18:03:38;6.10;36.00
12006;DHT22;6062;47.294;12.182;2023-02-15T18:06:34;6.10;36.40
12006;DHT22;6062;47.294;12.182;2023-02-15T18:09:22;6.00;36.60
12006;DHT22;6062;47.294;12.182;2023-02-15T18:12:21;5.90;36.80
12006;DHT22;6062;47.294;12.182;2023-02-15T18:14:49;5.90;37.20
12006;DHT22;6062;47.294;12.182;2023-02-15T18:17:16;5.80;37.20
12006;DHT22;6062;47.294;12.182;2023-02-15T18:19:45;5.70;37.20
12006;DHT22;6062;47.294;12.182;2023-02-15T18:22:17;5.70;37.40
12006;DHT22;6062;47.294;12.182;2023-02-15T18:24:44;5.60;37.70
12006;DHT22;6062;47.294;12.182;2023-02-15T18:27:14;5.60;37.80
12006;DHT22;6062;47.294;12.182;2023-02-15T18:29:40;5.50;37.90
12006;DHT22;6062;47.294;12.182;2023-02-15T18:32:09;5.50;38.00
12006;DHT22;6062;47.294;12.182;2023-02-15T18:34:42;5.40;38.00
12006;DHT22;6062;47.294;12.182;2023-02-15T18:37:20;5.40;38.30
12006;DHT22;6062;47.294;12.182;2023-02-15T18:39:50;5.40;38.50
12006;DHT22;6062;47.294;12.182;2023-02-15T18:42:24;5.30;38.50
12006;DHT22;6062;47.294;12.182;2023-02-15T18:44:57;5.30;38.50
12006;DHT22;6062;47.294;12.182;2023-02-15T18:47:24;5.30;38.50
12006;DHT22;6062;47.294;12.182;2023-02-15T18:49:50;5.20;38.40
12006;DHT22;6062;47.294;12.182;2023-02-15T18:52:25;5.20;38.80